World's Challenging Approaches -5 |VQPR|23-12-2017|16:00Z

User avatar
V12
Posts: 152
Joined: Sun Mar 19, 2017 5:15 pm

Re: World's Challenging Approaches -5 |VQPR|23-12-2017|16:00Z

Postby V12 » Fri Dec 22, 2017 2:02 pm

I tested strong 50 kts gusty wind. Landing impossible...
EDIT :
Possible, with 200 kts landing speed. But runway was not long enough...

User avatar
Woosh
Posts: 6
Joined: Thu Dec 21, 2017 12:49 pm

Re: World's Challenging Approaches -5 |VQPR|23-12-2017|16:00Z

Postby Woosh » Fri Dec 22, 2017 4:15 pm

I am currently preparing and testing 2x2 METAR
1 in between nice weather and slightly turbulent
1 "are you crazy, are you really going out with this weather ???"

for each opposite RWY

in test now

if I survive I'll post them here still tonight

:D

User avatar
V12
Posts: 152
Joined: Sun Mar 19, 2017 5:15 pm

Re: World's Challenging Approaches -5 |VQPR|23-12-2017|16:00Z

Postby V12 » Fri Dec 22, 2017 8:25 pm

Are You still alive ?

User avatar
Woosh
Posts: 6
Joined: Thu Dec 21, 2017 12:49 pm

Re: World's Challenging Approaches -5 |VQPR|23-12-2017|16:00Z

Postby Woosh » Sat Dec 23, 2017 3:12 am

like the phoenix !

METAR
with
- FAIR WEATHER
→ no problems / both RWY

with
- 2017/12/22 08:30 VQPR 220830Z 24008KT 9999 SKC 20/M04 Q1016
2017/12/22 08:30 VQPR 220830Z 03008KT 9999 SKC 20/M04 Q1016
→ RWY15 landed almost properly
→ RWY22 nice descent "shuttle style" - still too high to close - tried Gimmy glide - missed RWY line by 50m

with
- 2017/12/23 02:30 VQPR 230230Z 24018G29KT 200V300 6KM DRSN BNK130 OVC160 01/M02 Q1007
→ is only for grown up with took double vitamins breakfast

User avatar
GabrielYV
Posts: 52
Joined: Fri Jun 10, 2016 6:01 pm
Location: Venezuela
Contact:

Re: World's Challenging Approaches -5 |VQPR|23-12-2017|16:00Z

Postby GabrielYV » Sat Dec 23, 2017 6:21 am

I join the event
aircraft: A320
callsign: YV123B
good luck to all.
regards Gabriel Hernandez(YV3399-YV123B)

User avatar
SHM
Posts: 1652
Joined: Mon Sep 14, 2015 3:32 pm
Location: India

Re: World's Challenging Approaches -5 |VQPR|23-12-2017|16:00Z

Postby SHM » Sat Dec 23, 2017 7:31 am

Roger, I've added you to the list.

User avatar
V12
Posts: 152
Joined: Sun Mar 19, 2017 5:15 pm

Re: World's Challenging Approaches -5 |VQPR|23-12-2017|16:00Z

Postby V12 » Sat Dec 23, 2017 9:23 am

Woosh wrote:.
.
.
- 2017/12/23 02:30 VQPR 230230Z 24018G29KT 200V300 6KM DRSN BNK130 OVC160 01/M02 Q1007
is only for grown up with took double vitamins breakfast


Hmm, very rough weather, but with 0.5l Monster Energy and some lucky doable :

https://ulozto.net/!YsBBZw4tmU60/concor ... 821-fgtape

User avatar
SHM
Posts: 1652
Joined: Mon Sep 14, 2015 3:32 pm
Location: India

Re: World's Challenging Approaches -5 |VQPR|23-12-2017|16:00Z

Postby SHM » Sat Dec 23, 2017 3:29 pm

Early Birds
Image

User avatar
SHM
Posts: 1652
Joined: Mon Sep 14, 2015 3:32 pm
Location: India

Re: World's Challenging Approaches -5 |VQPR|23-12-2017|16:00Z

Postby SHM » Sat Dec 23, 2017 3:46 pm

Image

User avatar
SHM
Posts: 1652
Joined: Mon Sep 14, 2015 3:32 pm
Location: India

Re: World's Challenging Approaches -5 |VQPR|23-12-2017|16:00Z

Postby SHM » Sat Dec 23, 2017 4:17 pm

Departing from Delhi
Image


Return to “World's Challenging Approaches Tour”

Who is online

Users browsing this forum: No registered users and 1 guest